sensor_id;sensor_type;location;lat;lon;timestamp;P1;durP1;ratioP1;P2;durP2;ratioP2
10013;SDS011;45684;48.358;10.746;2022-08-01T00:00:51;3.53;;;3.33;;
10013;SDS011;45684;48.358;10.746;2022-08-01T00:03:19;3.50;;;3.23;;
10013;SDS011;45684;48.358;10.746;2022-08-01T00:05:47;4.30;;;3.33;;
10013;SDS011;45684;48.358;10.746;2022-08-01T00:08:15;3.70;;;3.40;;
10013;SDS011;45684;48.358;10.746;2022-08-01T00:10:44;3.70;;;3.30;;
10013;SDS011;45684;48.358;10.746;2022-08-01T00:13:12;3.53;;;3.33;;
10013;SDS011;45684;48.358;10.746;2022-08-01T00:15:40;3.77;;;3.50;;
10013;SDS011;45684;48.358;10.746;2022-08-01T00:18:19;6.20;;;3.60;;
10013;SDS011;45684;48.358;10.746;2022-08-01T00:20:46;3.83;;;3.50;;
10013;SDS011;45684;48.358;10.746;2022-08-01T00:23:14;3.60;;;3.40;;
10013;SDS011;45684;48.358;10.746;2022-08-01T00:25:42;3.50;;;3.30;;
10013;SDS011;45684;48.358;10.746;2022-08-01T00:28:12;3.33;;;3.10;;
10013;SDS011;45684;48.358;10.746;2022-08-01T00:30:39;3.83;;;3.53;;
10013;SDS011;45684;48.358;10.746;2022-08-01T00:33:07;3.60;;;3.30;;
10013;SDS011;45684;48.358;10.746;2022-08-01T00:35:35;3.70;;;3.40;;
10013;SDS011;45684;48.358;10.746;2022-08-01T00:38:03;3.40;;;3.20;;
10013;SDS011;45684;48.358;10.746;2022-08-01T00:40:31;3.43;;;3.23;;
10013;SDS011;45684;48.358;10.746;2022-08-01T00:42:58;4.00;;;3.60;;
10013;SDS011;45684;48.358;10.746;2022-08-01T00:45:28;3.90;;;3.50;;
10013;SDS011;45684;48.358;10.746;2022-08-01T00:47:56;3.50;;;3.30;;
10013;SDS011;45684;48.358;10.746;2022-08-01T00:50:23;3.87;;;3.40;;
10013;SDS011;45684;48.358;10.746;2022-08-01T00:52:52;4.67;;;3.57;;
10013;SDS011;45684;48.358;10.746;2022-08-01T00:55:21;3.77;;;3.40;;
10013;SDS011;45684;48.358;10.746;2022-08-01T00:57:49;3.43;;;3.23;;
10013;SDS011;45684;48.358;10.746;2022-08-01T01:00:33;3.60;;;3.30;;
10013;SDS011;45684;48.358;10.746;2022-08-01T01:03:20;3.90;;;3.60;;
10013;SDS011;45684;48.358;10.746;2022-08-01T01:06:11;3.40;;;3.20;;
10013;SDS011;45684;48.358;10.746;2022-08-01T01:08:50;6.10;;;3.50;;
10013;SDS011;45684;48.358;10.746;2022-08-01T01:11:30;3.80;;;3.40;;
10013;SDS011;45684;48.358;10.746;2022-08-01T01:14:05;3.83;;;3.53;;
10013;SDS011;45684;48.358;10.746;2022-08-01T01:16:39;3.77;;;3.50;;
10013;SDS011;45684;48.358;10.746;2022-08-01T01:19:11;3.80;;;3.50;;
10013;SDS011;45684;48.358;10.746;2022-08-01T01:21:58;3.70;;;3.40;;
10013;SDS011;45684;48.358;10.746;2022-08-01T01:24:37;5.37;;;3.60;;
10013;SDS011;45684;48.358;10.746;2022-08-01T01:27:14;5.50;;;3.30;;
10013;SDS011;45684;48.358;10.746;2022-08-01T01:29:50;3.50;;;3.27;;
10013;SDS011;45684;48.358;10.746;2022-08-01T01:32:28;3.33;;;3.13;;
10013;SDS011;45684;48.358;10.746;2022-08-01T01:35:00;5.00;;;3.70;;
10013;SDS011;45684;48.358;10.746;2022-08-01T01:37:32;3.50;;;3.20;;
10013;SDS011;45684;48.358;10.746;2022-08-01T01:40:02;4.33;;;3.23;;
10013;SDS011;45684;48.358;10.746;2022-08-01T01:42:32;3.60;;;3.30;;
10013;SDS011;45684;48.358;10.746;2022-08-01T01:45:04;3.87;;;3.23;;
10013;SDS011;45684;48.358;10.746;2022-08-01T01:47:34;3.73;;;3.50;;
10013;SDS011;45684;48.358;10.746;2022-08-01T01:50:04;3.67;;;3.37;;
10013;SDS011;45684;48.358;10.746;2022-08-01T01:52:34;5.33;;;3.30;;
10013;SDS011;45684;48.358;10.746;2022-08-01T01:55:05;5.00;;;3.60;;
10013;SDS011;45684;48.358;10.746;2022-08-01T01:57:36;3.80;;;3.30;;
10013;SDS011;45684;48.358;10.746;2022-08-01T02:00:08;3.90;;;3.40;;
10013;SDS011;45684;48.358;10.746;2022-08-01T02:02:39;4.20;;;3.13;;
10013;SDS011;45684;48.358;10.746;2022-08-01T02:05:10;6.17;;;3.60;;
10013;SDS011;45684;48.358;10.746;2022-08-01T02:07:39;3.60;;;3.40;;
10013;SDS011;45684;48.358;10.746;2022-08-01T02:10:09;3.53;;;3.23;;
10013;SDS011;45684;48.358;10.746;2022-08-01T02:12:39;3.53;;;3.27;;
10013;SDS011;45684;48.358;10.746;2022-08-01T02:15:13;3.60;;;3.20;;
10013;SDS011;45684;48.358;10.746;2022-08-01T02:17:43;3.37;;;3.17;;
10013;SDS011;45684;48.358;10.746;2022-08-01T02:20:16;3.40;;;3.20;;
10013;SDS011;45684;48.358;10.746;2022-08-01T02:22:46;4.93;;;3.13;;
10013;SDS011;45684;48.358;10.746;2022-08-01T02:25:19;3.67;;;3.37;;
10013;SDS011;45684;48.358;10.746;2022-08-01T02:27:52;3.90;;;3.60;;
10013;SDS011;45684;48.358;10.746;2022-08-01T02:30:28;3.60;;;3.30;;
10013;SDS011;45684;48.358;10.746;2022-08-01T02:33:02;3.43;;;3.23;;
10013;SDS011;45684;48.358;10.746;2022-08-01T02:35:41;3.37;;;3.10;;
10013;SDS011;45684;48.358;10.746;2022-08-01T02:38:32;3.40;;;3.10;;
10013;SDS011;45684;48.358;10.746;2022-08-01T02:41:04;3.30;;;3.10;;
10013;SDS011;45684;48.358;10.746;2022-08-01T02:43:36;3.23;;;2.93;;
10013;SDS011;45684;48.358;10.746;2022-08-01T02:46:07;3.33;;;3.03;;
10013;SDS011;45684;48.358;10.746;2022-08-01T02:48:40;3.27;;;3.07;;
10013;SDS011;45684;48.358;10.746;2022-08-01T02:51:10;3.03;;;2.83;;
10013;SDS011;45684;48.358;10.746;2022-08-01T02:53:39;3.43;;;3.00;;
10013;SDS011;45684;48.358;10.746;2022-08-01T02:56:10;3.30;;;3.00;;
10013;SDS011;45684;48.358;10.746;2022-08-01T02:58:40;3.27;;;3.07;;
10013;SDS011;45684;48.358;10.746;2022-08-01T03:01:12;3.50;;;3.00;;
10013;SDS011;45684;48.358;10.746;2022-08-01T03:03:45;2.70;;;2.50;;
10013;SDS011;45684;48.358;10.746;2022-08-01T03:06:13;3.73;;;3.43;;
10013;SDS011;45684;48.358;10.746;2022-08-01T03:08:42;3.47;;;2.87;;
10013;SDS011;45684;48.358;10.746;2022-08-01T03:11:12;3.20;;;2.90;;
10013;SDS011;45684;48.358;10.746;2022-08-01T03:13:41;3.00;;;2.80;;
10013;SDS011;45684;48.358;10.746;2022-08-01T03:16:13;3.10;;;2.90;;
10013;SDS011;45684;48.358;10.746;2022-08-01T03:18:44;5.20;;;3.10;;
10013;SDS011;45684;48.358;10.746;2022-08-01T03:21:12;3.27;;;3.00;;
10013;SDS011;45684;48.358;10.746;2022-08-01T03:23:43;3.30;;;3.00;;
10013;SDS011;45684;48.358;10.746;2022-08-01T03:26:18;3.30;;;3.00;;
10013;SDS011;45684;48.358;10.746;2022-08-01T03:28:47;3.20;;;3.00;;
10013;SDS011;45684;48.358;10.746;2022-08-01T03:31:17;7.10;;;3.30;;
10013;SDS011;45684;48.358;10.746;2022-08-01T03:33:45;3.53;;;3.23;;
10013;SDS011;45684;48.358;10.746;2022-08-01T03:36:13;3.80;;;2.80;;
10013;SDS011;45684;48.358;10.746;2022-08-01T03:38:43;2.87;;;2.67;;
10013;SDS011;45684;48.358;10.746;2022-08-01T03:41:15;3.93;;;2.90;;
10013;SDS011;45684;48.358;10.746;2022-08-01T03:43:48;3.00;;;2.80;;
10013;SDS011;45684;48.358;10.746;2022-08-01T03:46:22;3.40;;;3.10;;
10013;SDS011;45684;48.358;10.746;2022-08-01T03:48:57;4.27;;;2.97;;
10013;SDS011;45684;48.358;10.746;2022-08-01T03:51:28;3.10;;;2.80;;
10013;SDS011;45684;48.358;10.746;2022-08-01T03:53:57;3.07;;;2.87;;
10013;SDS011;45684;48.358;10.746;2022-08-01T03:56:27;3.03;;;2.83;;
10013;SDS011;45684;48.358;10.746;2022-08-01T03:58:58;5.50;;;3.00;;
10013;SDS011;45684;48.358;10.746;2022-08-01T04:01:28;3.20;;;3.00;;
10013;SDS011;45684;48.358;10.746;2022-08-01T04:03:57;3.37;;;3.00;;
10013;SDS011;45684;48.358;10.746;2022-08-01T04:06:25;4.43;;;3.00;;
10013;SDS011;45684;48.358;10.746;2022-08-01T04:08:53;3.47;;;3.10;;
10013;SDS011;45684;48.358;10.746;2022-08-01T04:11:25;3.47;;;3.17;;
10013;SDS011;45684;48.358;10.746;2022-08-01T04:13:54;3.23;;;2.93;;
10013;SDS011;45684;48.358;10.746;2022-08-01T04:16:23;3.20;;;2.90;;
10013;SDS011;45684;48.358;10.746;2022-08-01T04:18:52;2.93;;;2.73;;
10013;SDS011;45684;48.358;10.746;2022-08-01T04:21:20;3.23;;;3.00;;
10013;SDS011;45684;48.358;10.746;2022-08-01T04:23:51;3.20;;;3.00;;
10013;SDS011;45684;48.358;10.746;2022-08-01T04:26:21;2.83;;;2.63;;
10013;SDS011;45684;48.358;10.746;2022-08-01T04:28:49;3.17;;;2.93;;
10013;SDS011;45684;48.358;10.746;2022-08-01T04:31:21;3.20;;;2.90;;
10013;SDS011;45684;48.358;10.746;2022-08-01T04:33:54;2.90;;;2.70;;
10013;SDS011;45684;48.358;10.746;2022-08-01T04:36:24;3.23;;;2.90;;
10013;SDS011;45684;48.358;10.746;2022-08-01T04:38:54;3.40;;;3.20;;
10013;SDS011;45684;48.358;10.746;2022-08-01T04:41:25;3.07;;;2.87;;
10013;SDS011;45684;48.358;10.746;2022-08-01T04:43:53;3.00;;;2.70;;
10013;SDS011;45684;48.358;10.746;2022-08-01T04:46:22;3.00;;;2.80;;
10013;SDS011;45684;48.358;10.746;2022-08-01T04:48:49;2.90;;;2.70;;
10013;SDS011;45684;48.358;10.746;2022-08-01T04:51:22;3.13;;;2.90;;
10013;SDS011;45684;48.358;10.746;2022-08-01T04:53:50;3.13;;;2.73;;
10013;SDS011;45684;48.358;10.746;2022-08-01T04:56:18;3.37;;;2.93;;
10013;SDS011;45684;48.358;10.746;2022-08-01T04:58:47;3.77;;;2.97;;
10013;SDS011;45684;48.358;10.746;2022-08-01T05:01:47;3.00;;;2.70;;
10013;SDS011;45684;48.358;10.746;2022-08-01T05:04:16;3.50;;;3.17;;
10013;SDS011;45684;48.358;10.746;2022-08-01T05:06:46;3.43;;;2.73;;
10013;SDS011;45684;48.358;10.746;2022-08-01T05:09:14;3.20;;;2.90;;
10013;SDS011;45684;48.358;10.746;2022-08-01T05:11:42;3.40;;;2.97;;
10013;SDS011;45684;48.358;10.746;2022-08-01T05:14:10;2.87;;;2.67;;
10013;SDS011;45684;48.358;10.746;2022-08-01T05:16:38;3.30;;;3.10;;
10013;SDS011;45684;48.358;10.746;2022-08-01T05:19:05;3.33;;;2.97;;
10013;SDS011;45684;48.358;10.746;2022-08-01T05:21:34;2.67;;;2.50;;
10013;SDS011;45684;48.358;10.746;2022-08-01T05:24:06;3.33;;;2.70;;
10013;SDS011;45684;48.358;10.746;2022-08-01T05:26:35;2.87;;;2.67;;
10013;SDS011;45684;48.358;10.746;2022-08-01T05:29:03;4.23;;;2.80;;
10013;SDS011;45684;48.358;10.746;2022-08-01T05:31:31;3.70;;;2.90;;
10013;SDS011;45684;48.358;10.746;2022-08-01T05:34:00;3.27;;;2.97;;
10013;SDS011;45684;48.358;10.746;2022-08-01T05:36:28;2.93;;;2.63;;
10013;SDS011;45684;48.358;10.746;2022-08-01T05:38:56;2.93;;;2.73;;
10013;SDS011;45684;48.358;10.746;2022-08-01T05:41:26;2.80;;;2.60;;
10013;SDS011;45684;48.358;10.746;2022-08-01T05:43:53;3.07;;;2.87;;
10013;SDS011;45684;48.358;10.746;2022-08-01T05:46:21;3.13;;;2.60;;
10013;SDS011;45684;48.358;10.746;2022-08-01T05:48:53;2.73;;;2.37;;
10013;SDS011;45684;48.358;10.746;2022-08-01T05:51:21;2.90;;;2.60;;
10013;SDS011;45684;48.358;10.746;2022-08-01T05:53:48;2.80;;;2.60;;
10013;SDS011;45684;48.358;10.746;2022-08-01T05:56:16;3.13;;;2.73;;
10013;SDS011;45684;48.358;10.746;2022-08-01T05:58:46;3.03;;;2.83;;
10013;SDS011;45684;48.358;10.746;2022-08-01T06:01:14;2.77;;;2.57;;
10013;SDS011;45684;48.358;10.746;2022-08-01T06:03:41;3.00;;;2.80;;
10013;SDS011;45684;48.358;10.746;2022-08-01T06:06:09;3.53;;;2.70;;
10013;SDS011;45684;48.358;10.746;2022-08-01T06:08:38;3.00;;;2.80;;
10013;SDS011;45684;48.358;10.746;2022-08-01T06:11:05;2.93;;;2.67;;
10013;SDS011;45684;48.358;10.746;2022-08-01T06:13:34;2.97;;;2.77;;
10013;SDS011;45684;48.358;10.746;2022-08-01T06:16:15;4.43;;;2.97;;
10013;SDS011;45684;48.358;10.746;2022-08-01T06:18:43;3.00;;;2.80;;
10013;SDS011;45684;48.358;10.746;2022-08-01T06:21:11;3.53;;;2.70;;
10013;SDS011;45684;48.358;10.746;2022-08-01T06:23:39;4.23;;;2.90;;
10013;SDS011;45684;48.358;10.746;2022-08-01T06:26:07;3.30;;;3.00;;
10013;SDS011;45684;48.358;10.746;2022-08-01T06:28:35;2.83;;;2.63;;
10013;SDS011;45684;48.358;10.746;2022-08-01T06:31:04;2.80;;;2.60;;
10013;SDS011;45684;48.358;10.746;2022-08-01T06:33:33;2.90;;;2.70;;
10013;SDS011;45684;48.358;10.746;2022-08-01T06:36:01;3.20;;;2.90;;
10013;SDS011;45684;48.358;10.746;2022-08-01T06:38:29;2.90;;;2.70;;
10013;SDS011;45684;48.358;10.746;2022-08-01T06:40:57;3.30;;;3.00;;
10013;SDS011;45684;48.358;10.746;2022-08-01T06:43:24;3.40;;;2.77;;
10013;SDS011;45684;48.358;10.746;2022-08-01T06:45:52;4.53;;;2.73;;
10013;SDS011;45684;48.358;10.746;2022-08-01T06:48:20;3.20;;;2.57;;
10013;SDS011;45684;48.358;10.746;2022-08-01T06:50:50;2.97;;;2.60;;
10013;SDS011;45684;48.358;10.746;2022-08-01T06:53:34;3.00;;;2.80;;
10013;SDS011;45684;48.358;10.746;2022-08-01T06:56:02;3.40;;;3.10;;
10013;SDS011;45684;48.358;10.746;2022-08-01T06:58:31;3.23;;;2.80;;
10013;SDS011;45684;48.358;10.746;2022-08-01T07:01:00;3.10;;;2.90;;
10013;SDS011;45684;48.358;10.746;2022-08-01T07:03:30;2.70;;;2.50;;
10013;SDS011;45684;48.358;10.746;2022-08-01T07:06:19;4.33;;;2.80;;
10013;SDS011;45684;48.358;10.746;2022-08-01T07:08:47;3.10;;;2.90;;
10013;SDS011;45684;48.358;10.746;2022-08-01T07:11:15;3.20;;;2.90;;
10013;SDS011;45684;48.358;10.746;2022-08-01T07:13:43;3.23;;;2.93;;
10013;SDS011;45684;48.358;10.746;2022-08-01T07:16:12;4.23;;;2.80;;
10013;SDS011;45684;48.358;10.746;2022-08-01T07:18:40;2.97;;;2.77;;
10013;SDS011;45684;48.358;10.746;2022-08-01T07:21:08;3.10;;;2.80;;
10013;SDS011;45684;48.358;10.746;2022-08-01T07:23:57;2.80;;;2.60;;
10013;SDS011;45684;48.358;10.746;2022-08-01T07:26:26;2.87;;;2.60;;
10013;SDS011;45684;48.358;10.746;2022-08-01T07:28:54;3.00;;;2.80;;
10013;SDS011;45684;48.358;10.746;2022-08-01T07:31:21;2.63;;;2.43;;
10013;SDS011;45684;48.358;10.746;2022-08-01T07:33:54;2.83;;;2.63;;
10013;SDS011;45684;48.358;10.746;2022-08-01T07:36:22;3.00;;;2.80;;
10013;SDS011;45684;48.358;10.746;2022-08-01T07:38:50;3.10;;;2.80;;
10013;SDS011;45684;48.358;10.746;2022-08-01T07:41:19;2.63;;;2.43;;
10013;SDS011;45684;48.358;10.746;2022-08-01T07:44:07;4.73;;;2.60;;
10013;SDS011;45684;48.358;10.746;2022-08-01T07:46:35;2.63;;;2.43;;
10013;SDS011;45684;48.358;10.746;2022-08-01T07:49:03;2.40;;;2.20;;
10013;SDS011;45684;48.358;10.746;2022-08-01T07:51:31;2.97;;;2.73;;
10013;SDS011;45684;48.358;10.746;2022-08-01T07:53:59;2.80;;;2.60;;
10013;SDS011;45684;48.358;10.746;2022-08-01T07:56:28;2.78;;;2.58;;
10013;SDS011;45684;48.358;10.746;2022-08-01T07:58:56;4.10;;;2.90;;
10013;SDS011;45684;48.358;10.746;2022-08-01T08:01:24;2.80;;;2.60;;
10013;SDS011;45684;48.358;10.746;2022-08-01T08:03:53;2.57;;;2.37;;
10013;SDS011;45684;48.358;10.746;2022-08-01T08:06:20;2.85;;;2.60;;
10013;SDS011;45684;48.358;10.746;2022-08-01T08:08:48;2.80;;;2.60;;
10013;SDS011;45684;48.358;10.746;2022-08-01T08:11:16;2.60;;;2.40;;
10013;SDS011;45684;48.358;10.746;2022-08-01T08:13:45;2.97;;;2.60;;
10013;SDS011;45684;48.358;10.746;2022-08-01T08:16:13;2.47;;;2.28;;
10013;SDS011;45684;48.358;10.746;2022-08-01T08:18:41;2.50;;;2.30;;
10013;SDS011;45684;48.358;10.746;2022-08-01T08:21:09;3.22;;;2.30;;
10013;SDS011;45684;48.358;10.746;2022-08-01T08:23:37;2.55;;;2.35;;
10013;SDS011;45684;48.358;10.746;2022-08-01T08:26:22;2.78;;;2.40;;
10013;SDS011;45684;48.358;10.746;2022-08-01T08:28:52;2.70;;;2.20;;
10013;SDS011;45684;48.358;10.746;2022-08-01T08:31:20;2.15;;;2.03;;
10013;SDS011;45684;48.358;10.746;2022-08-01T08:34:08;2.88;;;1.88;;
10013;SDS011;45684;48.358;10.746;2022-08-01T08:36:36;2.00;;;1.90;;
10013;SDS011;45684;48.358;10.746;2022-08-01T08:39:13;1.98;;;1.88;;
10013;SDS011;45684;48.358;10.746;2022-08-01T08:41:44;3.05;;;2.00;;
10013;SDS011;45684;48.358;10.746;2022-08-01T08:44:17;2.10;;;1.90;;
10013;SDS011;45684;48.358;10.746;2022-08-01T08:46:46;2.17;;;1.73;;
10013;SDS011;45684;48.358;10.746;2022-08-01T08:49:19;2.95;;;1.90;;
10013;SDS011;45684;48.358;10.746;2022-08-01T08:51:49;3.15;;;1.80;;
10013;SDS011;45684;48.358;10.746;2022-08-01T08:54:19;2.00;;;1.75;;
10013;SDS011;45684;48.358;10.746;2022-08-01T08:56:56;4.50;;;2.00;;
10013;SDS011;45684;48.358;10.746;2022-08-01T08:59:27;2.17;;;1.70;;
10013;SDS011;45684;48.358;10.746;2022-08-01T09:01:56;1.75;;;1.65;;
10013;SDS011;45684;48.358;10.746;2022-08-01T09:04:25;2.20;;;1.95;;
10013;SDS011;45684;48.358;10.746;2022-08-01T09:06:55;2.55;;;1.90;;
10013;SDS011;45684;48.358;10.746;2022-08-01T09:09:23;2.55;;;1.85;;
10013;SDS011;45684;48.358;10.746;2022-08-01T09:11:51;2.97;;;1.80;;
10013;SDS011;45684;48.358;10.746;2022-08-01T09:14:23;1.80;;;1.70;;
10013;SDS011;45684;48.358;10.746;2022-08-01T09:17:01;2.58;;;1.75;;
10013;SDS011;45684;48.358;10.746;2022-08-01T09:19:36;1.90;;;1.75;;
10013;SDS011;45684;48.358;10.746;2022-08-01T09:22:07;2.30;;;1.55;;
10013;SDS011;45684;48.358;10.746;2022-08-01T09:24:36;1.80;;;1.70;;
10013;SDS011;45684;48.358;10.746;2022-08-01T09:27:15;2.75;;;1.75;;
10013;SDS011;45684;48.358;10.746;2022-08-01T09:29:47;4.25;;;1.80;;
10013;SDS011;45684;48.358;10.746;2022-08-01T09:32:29;1.80;;;1.70;;
10013;SDS011;45684;48.358;10.746;2022-08-01T09:38:11;2.17;;;1.58;;
10013;SDS011;45684;48.358;10.746;2022-08-01T09:40:49;1.67;;;1.58;;
10013;SDS011;45684;48.358;10.746;2022-08-01T09:43:21;1.63;;;1.52;;
10013;SDS011;45684;48.358;10.746;2022-08-01T09:45:50;1.45;;;1.40;;
10013;SDS011;45684;48.358;10.746;2022-08-01T09:48:22;1.92;;;1.80;;
10013;SDS011;45684;48.358;10.746;2022-08-01T09:50:54;1.92;;;1.73;;
10013;SDS011;45684;48.358;10.746;2022-08-01T09:53:41;5.25;;;1.75;;
10013;SDS011;45684;48.358;10.746;2022-08-01T09:56:18;3.97;;;1.60;;
10013;SDS011;45684;48.358;10.746;2022-08-01T09:58:54;2.25;;;1.50;;
10013;SDS011;45684;48.358;10.746;2022-08-01T10:01:27;3.90;;;1.40;;
10013;SDS011;45684;48.358;10.746;2022-08-01T10:04:08;2.40;;;1.50;;
10013;SDS011;45684;48.358;10.746;2022-08-01T10:06:38;1.90;;;1.80;;
10013;SDS011;45684;48.358;10.746;2022-08-01T10:09:09;1.70;;;1.60;;
10013;SDS011;45684;48.358;10.746;2022-08-01T10:11:40;1.65;;;1.55;;
10013;SDS011;45684;48.358;10.746;2022-08-01T10:14:10;1.65;;;1.55;;
10013;SDS011;45684;48.358;10.746;2022-08-01T10:16:44;1.85;;;1.75;;
10013;SDS011;45684;48.358;10.746;2022-08-01T10:19:23;2.28;;;1.65;;
10013;SDS011;45684;48.358;10.746;2022-08-01T10:21:55;1.80;;;1.70;;
10013;SDS011;45684;48.358;10.746;2022-08-01T10:24:27;1.83;;;1.65;;
10013;SDS011;45684;48.358;10.746;2022-08-01T10:26:59;1.60;;;1.50;;
10013;SDS011;45684;48.358;10.746;2022-08-01T10:29:35;1.70;;;1.60;;
10013;SDS011;45684;48.358;10.746;2022-08-01T10:32:29;1.70;;;1.60;;
10013;SDS011;45684;48.358;10.746;2022-08-01T10:34:59;1.77;;;1.60;;
10013;SDS011;45684;48.358;10.746;2022-08-01T10:37:33;2.58;;;1.50;;
10013;SDS011;45684;48.358;10.746;2022-08-01T10:40:17;2.70;;;1.60;;
10013;SDS011;45684;48.358;10.746;2022-08-01T10:42:57;1.60;;;1.50;;
10013;SDS011;45684;48.358;10.746;2022-08-01T10:45:25;2.10;;;1.60;;
10013;SDS011;45684;48.358;10.746;2022-08-01T10:47:57;1.60;;;1.50;;
10013;SDS011;45684;48.358;10.746;2022-08-01T10:50:33;1.60;;;1.50;;
10013;SDS011;45684;48.358;10.746;2022-08-01T10:53:07;1.70;;;1.60;;
10013;SDS011;45684;48.358;10.746;2022-08-01T10:55:49;1.50;;;1.40;;
10013;SDS011;45684;48.358;10.746;2022-08-01T10:58:21;1.65;;;1.40;;
10013;SDS011;45684;48.358;10.746;2022-08-01T11:03:59;1.90;;;1.27;;
10013;SDS011;45684;48.358;10.746;2022-08-01T11:06:45;2.15;;;1.70;;
10013;SDS011;45684;48.358;10.746;2022-08-01T11:09:28;1.85;;;1.52;;
10013;SDS011;45684;48.358;10.746;2022-08-01T11:12:04;2.97;;;1.50;;
10013;SDS011;45684;48.358;10.746;2022-08-01T11:17:58;1.50;;;1.33;;
10013;SDS011;45684;48.358;10.746;2022-08-01T11:20:28;1.70;;;1.60;;
10013;SDS011;45684;48.358;10.746;2022-08-01T11:31:47;1.90;;;1.48;;
10013;SDS011;45684;48.358;10.746;2022-08-01T11:34:15;3.03;;;1.70;;
10013;SDS011;45684;48.358;10.746;2022-08-01T11:36:43;1.80;;;1.70;;
10013;SDS011;45684;48.358;10.746;2022-08-01T11:39:29;3.13;;;1.60;;
10013;SDS011;45684;48.358;10.746;2022-08-01T11:42:17;1.70;;;1.60;;
10013;SDS011;45684;48.358;10.746;2022-08-01T11:44:49;1.83;;;1.73;;
10013;SDS011;45684;48.358;10.746;2022-08-01T11:47:18;1.90;;;1.80;;
10013;SDS011;45684;48.358;10.746;2022-08-01T11:50:06;1.83;;;1.73;;
10013;SDS011;45684;48.358;10.746;2022-08-01T11:52:56;1.90;;;1.70;;
10013;SDS011;45684;48.358;10.746;2022-08-01T11:55:26;1.98;;;1.80;;
10013;SDS011;45684;48.358;10.746;2022-08-01T11:57:58;1.83;;;1.73;;
10013;SDS011;45684;48.358;10.746;2022-08-01T12:00:28;1.90;;;1.80;;
10013;SDS011;45684;48.358;10.746;2022-08-01T12:02:57;1.90;;;1.73;;
10013;SDS011;45684;48.358;10.746;2022-08-01T12:05:29;1.98;;;1.88;;
10013;SDS011;45684;48.358;10.746;2022-08-01T12:07:59;2.80;;;2.03;;
10013;SDS011;45684;48.358;10.746;2022-08-01T12:10:32;1.83;;;1.60;;
10013;SDS011;45684;48.358;10.746;2022-08-01T12:13:15;2.17;;;1.75;;
10013;SDS011;45684;48.358;10.746;2022-08-01T12:15:44;3.25;;;1.85;;
10013;SDS011;45684;48.358;10.746;2022-08-01T12:18:13;4.72;;;2.03;;
10013;SDS011;45684;48.358;10.746;2022-08-01T12:20:41;4.00;;;1.70;;
10013;SDS011;45684;48.358;10.746;2022-08-01T12:23:22;1.90;;;1.75;;
10013;SDS011;45684;48.358;10.746;2022-08-01T12:25:52;1.90;;;1.80;;
10013;SDS011;45684;48.358;10.746;2022-08-01T12:28:20;3.38;;;1.90;;
10013;SDS011;45684;48.358;10.746;2022-08-01T12:30:49;3.30;;;2.00;;
10013;SDS011;45684;48.358;10.746;2022-08-01T12:33:18;2.00;;;1.80;;
10013;SDS011;45684;48.358;10.746;2022-08-01T12:35:47;2.58;;;2.10;;
10013;SDS011;45684;48.358;10.746;2022-08-01T12:38:17;2.20;;;2.00;;
10013;SDS011;45684;48.358;10.746;2022-08-01T12:40:48;2.97;;;1.88;;
10013;SDS011;45684;48.358;10.746;2022-08-01T12:43:21;3.05;;;1.90;;
10013;SDS011;45684;48.358;10.746;2022-08-01T12:45:54;4.15;;;2.00;;
10013;SDS011;45684;48.358;10.746;2022-08-01T12:48:24;4.40;;;2.10;;
10013;SDS011;45684;48.358;10.746;2022-08-01T12:50:52;2.85;;;1.88;;
10013;SDS011;45684;48.358;10.746;2022-08-01T12:53:24;3.42;;;1.90;;
10013;SDS011;45684;48.358;10.746;2022-08-01T12:56:07;2.03;;;1.90;;
10013;SDS011;45684;48.358;10.746;2022-08-01T12:58:39;2.05;;;1.95;;
10013;SDS011;45684;48.358;10.746;2022-08-01T13:01:07;2.40;;;2.00;;
10013;SDS011;45684;48.358;10.746;2022-08-01T13:03:37;2.83;;;2.00;;
10013;SDS011;45684;48.358;10.746;2022-08-01T13:06:10;2.17;;;1.98;;
10013;SDS011;45684;48.358;10.746;2022-08-01T13:08:39;2.15;;;2.00;;
10013;SDS011;45684;48.358;10.746;2022-08-01T13:11:07;3.72;;;1.92;;
10013;SDS011;45684;48.358;10.746;2022-08-01T13:13:41;1.83;;;1.65;;
10013;SDS011;45684;48.358;10.746;2022-08-01T13:16:13;3.63;;;2.08;;
10013;SDS011;45684;48.358;10.746;2022-08-01T13:19:01;2.17;;;1.60;;
10013;SDS011;45684;48.358;10.746;2022-08-01T13:21:29;2.17;;;1.98;;
10013;SDS011;45684;48.358;10.746;2022-08-01T13:24:22;4.05;;;2.00;;
10013;SDS011;45684;48.358;10.746;2022-08-01T13:26:52;3.53;;;1.90;;
10013;SDS011;45684;48.358;10.746;2022-08-01T13:29:33;1.88;;;1.77;;
10013;SDS011;45684;48.358;10.746;2022-08-01T13:32:13;2.88;;;1.98;;
10013;SDS011;45684;48.358;10.746;2022-08-01T13:35:04;2.83;;;1.83;;
10013;SDS011;45684;48.358;10.746;2022-08-01T13:37:34;3.97;;;2.25;;
10013;SDS011;45684;48.358;10.746;2022-08-01T13:40:04;4.28;;;2.25;;
10013;SDS011;45684;48.358;10.746;2022-08-01T13:42:33;8.75;;;2.40;;
10013;SDS011;45684;48.358;10.746;2022-08-01T13:45:02;7.20;;;2.75;;
10013;SDS011;45684;48.358;10.746;2022-08-01T13:47:40;5.18;;;2.65;;
10013;SDS011;45684;48.358;10.746;2022-08-01T13:50:28;3.55;;;2.28;;
10013;SDS011;45684;48.358;10.746;2022-08-01T13:52:56;5.45;;;2.40;;
10013;SDS011;45684;48.358;10.746;2022-08-01T13:55:24;3.70;;;2.13;;
10013;SDS011;45684;48.358;10.746;2022-08-01T13:57:59;2.35;;;1.60;;
10013;SDS011;45684;48.358;10.746;2022-08-01T14:00:28;2.10;;;1.90;;
10013;SDS011;45684;48.358;10.746;2022-08-01T14:02:56;2.70;;;1.83;;
10013;SDS011;45684;48.358;10.746;2022-08-01T14:05:24;1.45;;;1.27;;
10013;SDS011;45684;48.358;10.746;2022-08-01T14:07:52;1.90;;;1.42;;
10013;SDS011;45684;48.358;10.746;2022-08-01T14:10:21;3.10;;;1.48;;
10013;SDS011;45684;48.358;10.746;2022-08-01T14:12:49;2.42;;;1.42;;
10013;SDS011;45684;48.358;10.746;2022-08-01T14:15:17;4.53;;;1.70;;
10013;SDS011;45684;48.358;10.746;2022-08-01T14:18:06;2.13;;;1.50;;
10013;SDS011;45684;48.358;10.746;2022-08-01T14:20:36;2.05;;;1.30;;
10013;SDS011;45684;48.358;10.746;2022-08-01T14:23:05;1.30;;;1.20;;
10013;SDS011;45684;48.358;10.746;2022-08-01T14:25:34;2.57;;;1.50;;
10013;SDS011;45684;48.358;10.746;2022-08-01T14:28:22;2.53;;;1.40;;
10013;SDS011;45684;48.358;10.746;2022-08-01T14:30:51;1.52;;;1.40;;
10013;SDS011;45684;48.358;10.746;2022-08-01T14:33:23;3.55;;;1.27;;
10013;SDS011;45684;48.358;10.746;2022-08-01T14:35:50;2.35;;;1.50;;
10013;SDS011;45684;48.358;10.746;2022-08-01T14:38:38;1.58;;;1.40;;
10013;SDS011;45684;48.358;10.746;2022-08-01T14:41:06;3.05;;;1.70;;
10013;SDS011;45684;48.358;10.746;2022-08-01T14:43:34;3.28;;;1.55;;
10013;SDS011;45684;48.358;10.746;2022-08-01T14:46:02;1.88;;;1.30;;
10013;SDS011;45684;48.358;10.746;2022-08-01T14:48:32;1.52;;;1.27;;
10013;SDS011;45684;48.358;10.746;2022-08-01T14:51:00;1.80;;;1.70;;
10013;SDS011;45684;48.358;10.746;2022-08-01T14:53:30;1.40;;;1.30;;
10013;SDS011;45684;48.358;10.746;2022-08-01T14:56:01;2.33;;;1.27;;
10013;SDS011;45684;48.358;10.746;2022-08-01T14:58:29;2.13;;;1.50;;
10013;SDS011;45684;48.358;10.746;2022-08-01T15:00:57;2.17;;;1.52;;
10013;SDS011;45684;48.358;10.746;2022-08-01T15:03:25;3.20;;;1.52;;
10013;SDS011;45684;48.358;10.746;2022-08-01T15:05:54;1.38;;;1.25;;
10013;SDS011;45684;48.358;10.746;2022-08-01T15:08:22;2.03;;;1.63;;
10013;SDS011;45684;48.358;10.746;2022-08-01T15:10:50;1.58;;;1.48;;
10013;SDS011;45684;48.358;10.746;2022-08-01T15:13:18;1.30;;;1.20;;
10013;SDS011;45684;48.358;10.746;2022-08-01T15:15:46;1.48;;;1.38;;
10013;SDS011;45684;48.358;10.746;2022-08-01T15:18:14;4.35;;;1.40;;